Airfield :
LOGIN :

Register | Disclaimer

   EN    FR    IT 

 










Legend :    VFR   Marginal VFR   IFR   Intensive IFR   Very Intensive IFR
Visi :
Ceiling :
>= 8 km
>= 3000ft
5 to 8 km
1000 to 3000 ft
1500m to 5 km
500 to 1000 ft
800 to 1500m
200 to 500 ft
< 800m
< 200 ft
Symbols :   Thunderstorms  Fog  Heavy snow  Heavy precipitations  Wind > 20 kt
SIGMETs :     Misc.  Thunderstorms  Icing  Turbulence  Mountain Waves  Volcanic Ashes






- Airport Elevation : 220 ft
- IATA code : CWL


EGFF - Cardiff Rhoose

CURRENT METAR :
  • 060450Z AUTO 26013KT 5000 -RA OVC011/// //////CB 11/11 Q1007 RERA

EXPIRED METARs :
  • 060420Z AUTO 26012KT 9999 -RA OVC011/// //////TCU 11/11 Q1007 RERA
  • 060350Z AUTO 26013KT 3100 +RA FEW005/// BKN009/// OVC017/// //////CB 11/11 Q1008
  • 060320Z AUTO 26013KT 9000 -RA SCT004/// BKN012/// BKN018/// //////TCU 11/11 Q1008 RERA REDZ
  • 060250Z AUTO 26013KT 8000 -RA BKN004/// BKN008/// OVC011/// //////TCU 11/11 Q1008
  • 060220Z AUTO 26013KT 6000 -RA BKN004 OVC010 11/11 Q1009

TAF AMD TAF EGFF
Valid from the 06 at 00:00 until the 07 at 00:00 UTC


060018Z 0600/0624 24015KT 9999 BKN010
TEMPO 0600/0615 24022G32KT
TEMPO 0600/0611 2000 +RADZ BR OVC004
PROB30
TEMPO 0608/0611 1400 DZ BKN001
BECMG 0611/0613 FEW014
TEMPO 0611/0617 7000 SHRA
BECMG 0613/0615 28020KT
PROB30
TEMPO 0613/0616 4000 +SHRA
TEMPO 0615/0617 28023G35KT
BECMG 0617/0620 28010KT
ATIS : +44 1446 729 319



MET'MAP, your aeronautical weather chart ! - Copyright ORBIFLY December 2007 - Disclaimer

ORBIFLY MET'MAP TEAM :

Programming & Development : Alexandra Zaïnal
Concept & original design : Baudouin d'Aumeries
Assistance for programming : Marc-Olivier Méhu
Technical & hardware support : Manuel Goepfert

Contact : metmap@orbifly.com




SOURCES & CREDITS :

   NOAA